Time;durP1;ratioP1;P1;durP2;ratioP2;P2;SDS_P1;SDS_P2;PMS_P1;PMS_P2;Temp;Humidity;BMP_temperature;BMP_pressure;BME280_temperature;BME280_humidity;BME280_pressure;Samples;Min_cycle;Max_cycle;Signal;HPM_P1;HPM_P2
2023/11/25 00:00:16;;;;;;;1.83;1.30;;;;;;;4.57;62.91;95146.31;5015349;28;20668;-69
2023/11/25 00:02:42;;;;;;;3.07;2.60;;;;;;;4.35;64.30;95155.88;5026594;28;20450;-69
2023/11/25 00:05:08;;;;;;;1.50;1.20;;;;;;;4.30;64.88;95166.44;5013710;28;20442;-70
2023/11/25 00:07:33;;;;;;;3.03;1.53;;;;;;;4.29;64.46;95167.34;5028942;28;20184;-69
2023/11/25 00:09:59;;;;;;;5.93;1.57;;;;;;;4.32;65.45;95164.59;5027323;28;20180;-69
2023/11/25 00:12:25;;;;;;;2.70;1.87;;;;;;;4.28;66.34;95163.06;5008131;28;20622;-68
2023/11/25 00:14:50;;;;;;;3.30;1.50;;;;;;;4.15;67.15;95161.84;5016565;28;20196;-70
2023/11/25 00:17:17;;;;;;;2.77;1.30;;;;;;;4.15;67.14;95167.03;5023762;28;20894;-68
2023/11/25 00:19:42;;;;;;;3.57;1.40;;;;;;;4.17;66.71;95162.63;5028310;28;20717;-69
2023/11/25 00:22:08;;;;;;;8.27;2.07;;;;;;;4.08;67.04;95163.81;5026062;28;20429;-69
2023/11/25 00:24:33;;;;;;;3.97;1.23;;;;;;;3.98;67.40;95155.53;5011103;28;20206;-70
2023/11/25 00:26:59;;;;;;;6.30;1.50;;;;;;;4.10;66.98;95162.00;5017137;28;20187;-69
2023/11/25 00:29:25;;;;;;;5.10;1.30;;;;;;;4.09;66.94;95162.94;5018314;28;20330;-70
2023/11/25 00:31:54;;;;;;;4.33;1.50;;;;;;;4.10;66.45;95159.41;5024815;28;20540;-69
2023/11/25 00:34:22;;;;;;;3.70;1.20;;;;;;;4.03;67.23;95163.16;5025557;28;20278;-68
2023/11/25 00:36:47;;;;;;;11.33;1.80;;;;;;;3.98;67.10;95152.94;5010686;28;20433;-68
2023/11/25 00:39:15;;;;;;;2.70;1.20;;;;;;;4.09;66.56;95173.31;5016038;28;20454;-70
2023/11/25 00:41:40;;;;;;;8.60;1.47;;;;;;;4.10;66.50;95172.38;5027701;28;20169;-69
2023/11/25 00:44:07;;;;;;;6.60;1.73;;;;;;;4.22;66.46;95177.09;5027262;28;20470;-67
2023/11/25 00:46:33;;;;;;;3.20;1.47;;;;;;;4.19;66.56;95179.00;5032714;28;20183;-70
2023/11/25 00:48:59;;;;;;;3.00;1.23;;;;;;;4.17;66.82;95189.44;5024257;28;20445;-69
2023/11/25 00:51:24;;;;;;;4.63;1.40;;;;;;;3.97;67.50;95197.16;5025961;28;20459;-69
2023/11/25 00:53:50;;;;;;;1.90;1.33;;;;;;;4.06;66.76;95208.91;5044033;28;20222;-69
2023/11/25 00:56:15;;;;;;;2.93;1.60;;;;;;;4.07;66.70;95200.22;5040966;28;20183;-69
2023/11/25 00:58:41;;;;;;;3.73;1.03;;;;;;;4.08;66.81;95207.09;5016261;28;20274;-69
2023/11/25 01:01:07;;;;;;;3.60;1.10;;;;;;;4.26;66.65;95208.16;5033122;28;20176;-69
2023/11/25 01:03:32;;;;;;;1.10;0.90;;;;;;;4.02;67.25;95213.38;5041255;28;20223;-68
2023/11/25 01:05:59;;;;;;;2.80;1.03;;;;;;;4.14;66.25;95212.09;5034886;28;20243;-68
2023/11/25 01:08:29;;;;;;;4.67;1.07;;;;;;;3.98;66.40;95217.00;5013871;28;20681;-70
2023/11/25 01:10:54;;;;;;;2.83;1.17;;;;;;;4.00;66.79;95226.41;5012611;28;20459;-69
2023/11/25 01:13:20;;;;;;;1.77;1.00;;;;;;;4.10;66.96;95231.25;5017455;28;20517;-69
2023/11/25 01:15:45;;;;;;;1.60;0.90;;;;;;;4.09;67.43;95233.03;5017325;28;20191;-68
2023/11/25 01:18:11;;;;;;;2.80;1.20;;;;;;;3.92;68.63;95231.06;5014702;28;20190;-66
2023/11/25 01:20:36;;;;;;;2.83;1.20;;;;;;;3.95;69.13;95228.34;5025541;28;20566;-69
2023/11/25 01:23:01;;;;;;;2.20;1.20;;;;;;;4.00;69.12;95225.56;5031472;28;20207;-69
2023/11/25 01:25:27;;;;;;;1.60;1.17;;;;;;;3.98;69.61;95242.94;5028710;28;20183;-70
2023/11/25 01:27:54;;;;;;;2.33;1.07;;;;;;;3.91;69.96;95241.47;5019617;28;20717;-69
2023/11/25 01:30:20;;;;;;;2.00;1.20;;;;;;;3.88;70.36;95252.81;5018217;28;20688;-68
2023/11/25 01:32:45;;;;;;;1.73;0.97;;;;;;;4.03;69.55;95251.41;5030040;28;20561;-70
2023/11/25 01:35:11;;;;;;;1.03;0.83;;;;;;;3.81;69.48;95253.94;5038778;28;20447;-69
2023/11/25 01:37:37;;;;;;;1.67;1.10;;;;;;;3.94;67.24;95262.97;5011070;28;20646;-69
2023/11/25 01:40:05;;;;;;;1.73;1.23;;;;;;;4.19;65.83;95257.72;5013251;28;20476;-68
2023/11/25 01:42:30;;;;;;;2.47;1.10;;;;;;;4.06;65.24;95272.06;5019772;28;20172;-69
2023/11/25 01:44:56;;;;;;;3.73;1.10;;;;;;;3.97;64.34;95265.47;5027440;28;20572;-69
2023/11/25 01:47:21;;;;;;;1.87;1.10;;;;;;;4.03;62.17;95272.16;5034734;28;20179;-69
2023/11/25 01:49:48;;;;;;;2.30;1.80;;;;;;;4.19;61.75;95249.09;5018106;28;20655;-69
2023/11/25 01:52:14;;;;;;;3.43;1.40;;;;;;;4.14;62.29;95251.88;5017050;28;20207;-69
2023/11/25 01:54:39;;;;;;;4.60;1.50;;;;;;;4.00;62.54;95244.59;5021475;28;20459;-68
2023/11/25 01:57:06;;;;;;;9.80;1.83;;;;;;;4.07;62.11;95259.94;5031537;28;20171;-69
2023/11/25 01:59:32;;;;;;;2.57;1.23;;;;;;;4.01;62.30;95280.00;5035518;28;20188;-69
2023/11/25 02:02:00;;;;;;;1.77;1.50;;;;;;;4.10;63.23;95293.56;5023686;28;20518;-69
2023/11/25 02:04:26;;;;;;;1.87;1.00;;;;;;;4.22;65.56;95306.09;5014977;28;20454;-69
2023/11/25 02:06:52;;;;;;;1.20;1.00;;;;;;;3.92;67.91;95324.50;5024318;28;20433;-69
2023/11/25 02:09:17;;;;;;;1.43;1.03;;;;;;;3.79;69.95;95321.44;5020837;28;20180;-70
2023/11/25 02:11:56;;;;;;;1.57;0.93;;;;;;;3.68;70.44;95340.88;5026239;28;20471;-69
2023/11/25 02:14:22;;;;;;;3.83;1.40;;;;;;;3.75;70.31;95338.03;5008587;28;20210;-68
2023/11/25 02:16:48;;;;;;;2.00;1.10;;;;;;;3.79;70.77;95341.38;5013698;28;20429;-68
2023/11/25 02:19:14;;;;;;;1.60;1.23;;;;;;;3.77;70.88;95343.16;5022283;28;20443;-68
2023/11/25 02:21:40;;;;;;;1.43;0.90;;;;;;;3.58;68.87;95328.22;5029516;28;20480;-67
2023/11/25 02:24:07;;;;;;;3.33;1.40;;;;;;;3.75;67.66;95332.00;5030891;28;20541;-69
2023/11/25 02:26:32;;;;;;;2.80;0.90;;;;;;;3.51;68.15;95339.69;5027434;28;20536;-70
2023/11/25 02:28:58;;;;;;;1.33;0.93;;;;;;;3.42;67.91;95334.81;5011785;28;20437;-69
2023/11/25 02:31:23;;;;;;;1.80;1.17;;;;;;;3.33;69.19;95341.19;5019292;28;20228;-70
2023/11/25 02:33:49;;;;;;;1.20;1.00;;;;;;;3.43;68.11;95331.34;5022117;28;20313;-68
2023/11/25 02:36:14;;;;;;;1.90;1.13;;;;;;;3.50;68.01;95340.63;5027561;28;20210;-68
2023/11/25 02:38:40;;;;;;;4.23;1.37;;;;;;;3.44;67.83;95339.97;5009603;28;20230;-68
2023/11/25 02:41:05;;;;;;;3.50;1.40;;;;;;;3.33;66.34;95348.94;5013291;28;20176;-69
2023/11/25 02:43:31;;;;;;;6.07;1.30;;;;;;;3.28;65.94;95340.44;5021094;28;20199;-69
2023/11/25 02:45:57;;;;;;;1.87;1.03;;;;;;;3.37;64.64;95349.69;5029125;28;20190;-68
2023/11/25 02:48:23;;;;;;;2.73;1.20;;;;;;;3.53;63.34;95356.06;5019057;28;20836;-69
2023/11/25 02:50:48;;;;;;;3.90;1.20;;;;;;;3.38;62.99;95361.78;5012928;28;20619;-69
2023/11/25 02:53:14;;;;;;;3.30;1.07;;;;;;;3.39;63.14;95377.25;5017981;28;20303;-68
2023/11/25 02:55:39;;;;;;;1.87;1.13;;;;;;;3.58;62.50;95382.69;5018752;28;20187;-69
2023/11/25 02:58:05;;;;;;;1.83;1.43;;;;;;;3.62;61.37;95380.03;5026850;28;20186;-70
2023/11/25 03:00:33;;;;;;;4.50;1.47;;;;;;;3.72;60.83;95409.94;5031235;28;20175;-69
2023/11/25 03:03:07;;;;;;;7.60;1.80;;;;;;;3.56;62.02;95378.47;5020554;28;20191;-69
2023/11/25 03:05:42;;;;;;;3.60;1.20;;;;;;;3.41;61.41;95408.34;5026976;28;20421;-68
2023/11/25 03:08:11;;;;;;;4.20;1.60;;;;;;;3.42;62.27;95409.19;5024639;28;20422;-68
2023/11/25 03:10:37;;;;;;;7.03;2.90;;;;;;;3.37;62.08;95411.91;5019188;28;20470;-68
2023/11/25 03:13:03;;;;;;;2.97;1.73;;;;;;;3.38;61.46;95416.22;5030809;28;20892;-69
2023/11/25 03:15:28;;;;;;;2.37;1.10;;;;;;;3.45;60.95;95425.50;5012532;28;20557;-69
2023/11/25 03:17:53;;;;;;;4.07;1.30;;;;;;;3.43;61.04;95440.28;5015595;28;20830;-69
2023/11/25 03:20:19;;;;;;;1.97;1.40;;;;;;;3.43;61.19;95436.84;5013170;28;20172;-69
2023/11/25 03:22:44;;;;;;;1.50;1.10;;;;;;;3.44;61.03;95436.75;5019865;28;20206;-67
2023/11/25 03:25:10;;;;;;;2.20;1.07;;;;;;;3.57;60.30;95439.84;5018737;28;20266;-69
2023/11/25 03:27:35;;;;;;;2.80;1.33;;;;;;;3.59;61.31;95440.59;5028853;28;20195;-69
2023/11/25 03:30:07;;;;;;;2.90;1.20;;;;;;;3.47;61.30;95451.38;5036798;28;20183;-69
2023/11/25 03:32:34;;;;;;;2.93;1.20;;;;;;;3.46;61.64;95452.28;5012794;28;21683;-68
2023/11/25 03:35:00;;;;;;;2.90;1.20;;;;;;;3.62;60.23;95461.28;5014648;28;20874;-68
2023/11/25 03:37:25;;;;;;;1.07;0.97;;;;;;;3.58;59.83;95457.09;5019768;28;20886;-68
2023/11/25 03:39:51;;;;;;;8.07;1.50;;;;;;;3.58;60.19;95473.50;5031829;28;20437;-67
2023/11/25 03:42:19;;;;;;;4.30;1.30;;;;;;;3.50;59.79;95464.28;5033123;28;20847;-67
2023/11/25 03:44:46;;;;;;;7.17;2.13;;;;;;;3.50;59.24;95470.31;5008526;28;20706;-69
2023/11/25 03:47:11;;;;;;;2.50;1.40;;;;;;;3.44;58.88;95467.88;5010741;28;20447;-68
2023/11/25 03:49:37;;;;;;;3.03;1.40;;;;;;;3.45;58.10;95479.97;5016507;28;20485;-70
2023/11/25 03:52:02;;;;;;;3.13;1.10;;;;;;;3.32;58.75;95479.47;5022884;28;20291;-69
2023/11/25 03:54:28;;;;;;;2.03;1.23;;;;;;;3.38;58.81;95481.91;5021593;28;20192;-68
2023/11/25 03:56:54;;;;;;;3.30;1.57;;;;;;;3.11;59.14;95493.94;5025360;28;20243;-69
2023/11/25 03:59:19;;;;;;;2.00;1.20;;;;;;;3.17;59.54;95488.56;5016138;28;20199;-69
2023/11/25 04:01:45;;;;;;;1.90;1.10;;;;;;;3.26;58.68;95487.47;5015479;28;20441;-69
2023/11/25 04:04:11;;;;;;;2.70;1.20;;;;;;;3.42;59.13;95489.59;5019167;28;20223;-68
2023/11/25 04:06:36;;;;;;;2.40;1.30;;;;;;;3.36;59.35;95501.00;5034886;28;20187;-70
2023/11/25 04:09:02;;;;;;;2.37;1.80;;;;;;;3.30;60.21;95496.81;5049243;28;20206;-69
2023/11/25 04:11:27;;;;;;;10.87;1.50;;;;;;;3.33;60.17;95503.66;5042012;28;20210;-69
2023/11/25 04:13:56;;;;;;;1.50;1.20;;;;;;;3.30;59.39;95504.59;5040533;28;20298;-68
2023/11/25 04:16:22;;;;;;;2.57;1.10;;;;;;;3.32;59.70;95500.22;5013178;28;20184;-69
2023/11/25 04:18:47;;;;;;;3.30;1.50;;;;;;;3.12;60.45;95507.75;5029487;28;20528;-69
2023/11/25 04:21:13;;;;;;;2.40;1.77;;;;;;;3.22;60.06;95500.56;5035825;28;20182;-69
2023/11/25 04:23:38;;;;;;;7.90;2.40;;;;;;;3.29;59.62;95495.16;5030538;28;20673;-69
2023/11/25 04:26:05;;;;;;;4.77;1.87;;;;;;;3.34;59.39;95508.81;5009357;28;20188;-69
2023/11/25 04:28:33;;;;;;;2.60;1.43;;;;;;;3.31;58.91;95521.88;5015361;28;20215;-69
2023/11/25 04:30:59;;;;;;;3.10;1.60;;;;;;;3.38;59.80;95507.00;5022349;28;20471;-69
2023/11/25 04:33:24;;;;;;;2.13;1.40;;;;;;;3.34;60.12;95519.19;5030913;28;20460;-69
2023/11/25 04:35:51;;;;;;;3.80;1.63;;;;;;;3.22;60.33;95521.31;5035731;28;21972;-69
2023/11/25 04:38:17;;;;;;;3.00;1.70;;;;;;;3.15;60.33;95524.06;5008143;28;20183;-69
2023/11/25 04:40:43;;;;;;;3.93;2.20;;;;;;;2.86;60.86;95526.63;5018888;28;20435;-69
2023/11/25 04:43:08;;;;;;;3.70;1.77;;;;;;;3.13;60.03;95531.03;5030794;28;20213;-69
2023/11/25 04:45:34;;;;;;;4.10;1.60;;;;;;;3.23;59.92;95528.19;5032216;28;20214;-68
2023/11/25 04:48:00;;;;;;;2.13;1.20;;;;;;;3.25;59.35;95537.59;5027509;28;20190;-70
2023/11/25 04:50:26;;;;;;;2.10;1.43;;;;;;;3.20;59.15;95543.84;5016174;28;20263;-69
2023/11/25 04:52:52;;;;;;;4.70;1.93;;;;;;;3.28;59.19;95542.69;5023180;28;20544;-69
2023/11/25 04:55:19;;;;;;;7.30;1.93;;;;;;;3.03;59.92;95546.91;5014523;28;21111;-68
2023/11/25 04:57:45;;;;;;;3.57;2.20;;;;;;;3.07;59.16;95551.97;5020593;28;20298;-69
2023/11/25 05:00:11;;;;;;;2.13;1.43;;;;;;;2.92;58.31;95550.63;5034766;28;20528;-68
2023/11/25 05:02:44;;;;;;;6.70;2.07;;;;;;;2.93;58.91;95551.50;5011292;28;20190;-68
2023/11/25 05:05:10;;;;;;;4.33;1.73;;;;;;;3.05;58.24;95561.53;5014671;28;21036;-67
2023/11/25 05:07:36;;;;;;;8.07;2.50;;;;;;;2.92;59.36;95561.00;5021364;28;20856;-70
2023/11/25 05:10:04;;;;;;;3.50;1.83;;;;;;;3.02;58.85;95568.50;5031376;28;20467;-67
2023/11/25 05:12:29;;;;;;;2.73;1.70;;;;;;;2.91;59.01;95571.41;5026564;28;20920;-69
2023/11/25 05:14:55;;;;;;;9.30;1.77;;;;;;;2.95;59.35;95581.66;5009348;28;20450;-67
2023/11/25 05:17:21;;;;;;;1.80;1.40;;;;;;;2.93;60.01;95580.84;5014574;28;20363;-69
2023/11/25 05:19:46;;;;;;;2.00;1.80;;;;;;;2.99;59.60;95582.41;5021583;28;20187;-68
2023/11/25 05:22:12;;;;;;;16.20;10.30;;;;;;;6.10;94.87;95572.94;5016415;28;20432;-68
2023/11/25 05:24:38;;;;;;;8.07;7.10;;;;;;;7.54;77.80;95571.22;5024167;28;20199;-69
2023/11/25 05:27:03;;;;;;;4.97;4.30;;;;;;;7.89;65.62;95568.72;5020774;28;20532;-68
2023/11/25 05:29:29;;;;;;;8.10;4.20;;;;;;;8.56;63.44;95575.16;5011503;28;20219;-69
2023/11/25 05:31:55;;;;;;;3.83;3.10;;;;;;;8.31;57.43;95581.53;5039481;28;20206;-68
2023/11/25 05:34:20;;;;;;;5.00;3.07;;;;;;;8.35;56.79;95587.47;5027398;28;20248;-69
2023/11/25 05:36:46;;;;;;;4.87;2.30;;;;;;;8.28;50.65;95587.75;5038216;28;20271;-70
2023/11/25 05:39:13;;;;;;;3.00;1.90;;;;;;;8.50;52.19;95594.59;5019676;28;20202;-69
2023/11/25 05:41:40;;;;;;;6.93;3.30;;;;;;;7.98;51.83;95597.03;5016090;28;20918;-68
2023/11/25 05:44:07;;;;;;;3.37;1.80;;;;;;;6.73;47.06;95602.53;5025405;28;20461;-68
2023/11/25 05:46:34;;;;;;;3.47;1.90;;;;;;;4.98;51.31;95614.31;5018755;28;20444;-69
2023/11/25 05:48:59;;;;;;;2.80;1.53;;;;;;;3.96;54.78;95624.56;5021317;28;20443;-68
2023/11/25 05:51:38;;;;;;;6.17;2.03;;;;;;;3.65;55.73;95626.38;5012331;28;20869;-69
2023/11/25 05:54:07;;;;;;;3.03;1.50;;;;;;;3.63;56.39;95625.56;5016930;28;20211;-67
2023/11/25 05:56:32;;;;;;;4.93;1.60;;;;;;;3.47;56.84;95627.75;5022772;28;20431;-68
2023/11/25 05:58:58;;;;;;;2.90;1.80;;;;;;;3.43;57.67;95627.00;5028160;28;20450;-68
2023/11/25 06:01:24;;;;;;;7.03;2.60;;;;;;;3.17;57.61;95628.56;5030815;28;20191;-67
2023/11/25 06:03:52;;;;;;;2.30;1.60;;;;;;;3.21;57.48;95638.84;5010520;28;20458;-67
2023/11/25 06:06:22;;;;;;;3.73;2.43;;;;;;;3.26;57.87;95631.78;5012562;28;20641;-68
2023/11/25 06:08:48;;;;;;;2.83;1.77;;;;;;;3.26;57.07;95626.59;5015192;28;20438;-69
2023/11/25 06:11:21;;;;;;;4.37;2.30;;;;;;;3.27;57.39;95628.31;5031421;28;20841;-69
2023/11/25 06:13:47;;;;;;;6.27;2.30;;;;;;;3.18;57.71;95626.81;5035161;28;20221;-69
2023/11/25 06:16:13;;;;;;;9.97;2.67;;;;;;;3.31;57.21;95629.94;5009001;28;20442;-68
2023/11/25 06:18:38;;;;;;;5.53;2.20;;;;;;;3.28;57.02;95630.84;5017362;28;20229;-69
2023/11/25 06:21:04;;;;;;;4.33;1.50;;;;;;;3.20;58.14;95631.97;5026115;28;20437;-69
2023/11/25 06:23:30;;;;;;;5.60;1.60;;;;;;;3.01;58.64;95635.06;5029552;28;20651;-69
2023/11/25 06:25:56;;;;;;;5.07;2.17;;;;;;;3.15;58.85;95626.91;5025992;28;20439;-69
2023/11/25 06:28:24;;;;;;;5.37;1.80;;;;;;;3.15;58.48;95626.91;5011067;28;20439;-69
2023/11/25 06:30:53;;;;;;;6.10;1.90;;;;;;;3.16;58.39;95626.00;5018801;28;20266;-69
2023/11/25 06:33:26;;;;;;;4.57;2.60;;;;;;;3.09;58.16;95625.31;5025035;28;20446;-68
2023/11/25 06:35:55;;;;;;;3.00;1.83;;;;;;;3.00;58.46;95633.38;5029383;28;20442;-69
2023/11/25 06:38:20;;;;;;;4.67;2.77;;;;;;;3.07;58.65;95632.31;5021383;28;20449;-69
2023/11/25 06:40:46;;;;;;;6.47;3.40;;;;;;;3.15;58.35;95625.16;5018089;28;20444;-69
2023/11/25 06:43:11;;;;;;;3.73;2.60;;;;;;;3.14;58.55;95628.66;5017851;28;20294;-69
2023/11/25 06:45:40;;;;;;;6.83;2.70;;;;;;;3.13;58.61;95629.53;5026134;28;20540;-69
2023/11/25 06:48:06;;;;;;;8.87;2.67;;;;;;;3.26;59.01;95632.66;5029815;28;20186;-68
2023/11/25 06:50:31;;;;;;;4.63;2.70;;;;;;;3.22;59.33;95628.44;5011331;28;20505;-69
2023/11/25 06:52:57;;;;;;;12.90;3.57;;;;;;;3.15;59.14;95624.31;5008876;28;20476;-68
2023/11/25 06:55:23;;;;;;;14.13;4.83;;;;;;;3.26;59.24;95632.66;5014610;28;20180;-69
2023/11/25 06:57:49;;;;;;;8.50;4.60;;;;;;;3.37;58.88;95640.97;5024357;28;20188;-69
2023/11/25 07:00:15;;;;;;;5.40;4.67;;;;;;;3.71;57.96;95633.97;5017323;28;20184;-69
2023/11/25 07:02:41;;;;;;;4.40;2.70;;;;;;;4.52;55.21;95628.03;5032494;28;20956;-69
2023/11/25 07:05:10;;;;;;;7.40;3.03;;;;;;;5.26;52.94;95626.38;5007478;28;20435;-68
2023/11/25 07:07:36;;;;;;;5.70;2.03;;;;;;;5.62;51.84;95616.41;5013846;28;20210;-69
2023/11/25 07:10:02;;;;;;;5.30;2.30;;;;;;;5.32;52.31;95623.56;5011036;28;20474;-68
2023/11/25 07:12:30;;;;;;;13.23;2.73;;;;;;;4.99;53.42;95629.03;5027648;28;20472;-69
2023/11/25 07:14:55;;;;;;;12.23;3.83;;;;;;;4.76;54.14;95628.97;5018973;28;20437;-69
2023/11/25 07:17:21;;;;;;;30.50;4.50;;;;;;;4.65;54.76;95631.91;5027054;28;20430;-69
2023/11/25 07:19:47;;;;;;;9.83;3.00;;;;;;;4.38;55.17;95636.28;5024516;28;20207;-69
2023/11/25 07:22:13;;;;;;;3.97;2.90;;;;;;;4.15;56.00;95636.97;5027193;28;20453;-69
2023/11/25 07:24:39;;;;;;;6.27;2.97;;;;;;;4.01;56.27;95651.22;5027438;28;20231;-69
2023/11/25 07:27:10;;;;;;;9.90;4.37;;;;;;;4.04;55.99;95652.91;5026491;28;20266;-69
2023/11/25 07:29:36;;;;;;;4.90;2.33;;;;;;;4.24;55.59;95647.09;5026651;28;20452;-69
2023/11/25 07:32:02;;;;;;;2.37;2.10;;;;;;;4.14;56.03;95656.06;5026581;28;20484;-69
2023/11/25 07:34:35;;;;;;;9.67;2.70;;;;;;;3.83;57.48;95657.00;5023704;28;20208;-70
2023/11/25 07:37:01;;;;;;;13.03;3.40;;;;;;;3.80;58.40;95651.88;5026379;28;20176;-69
2023/11/25 07:39:29;;;;;;;24.23;3.77;;;;;;;3.74;58.06;95660.69;5029787;28;20465;-68
2023/11/25 07:41:57;;;;;;;14.30;3.40;;;;;;;3.87;56.89;95649.94;5028694;28;20180;-69
2023/11/25 07:44:32;;;;;;;10.40;3.57;;;;;;;3.86;57.65;95656.88;5034534;28;20943;-68
2023/11/25 07:46:58;;;;;;;9.83;3.10;;;;;;;3.91;57.59;95659.34;5041783;28;20782;-68
2023/11/25 07:49:24;;;;;;;18.43;3.20;;;;;;;3.75;58.85;95670.16;5032737;28;20450;-69
2023/11/25 07:51:49;;;;;;;22.50;4.33;;;;;;;3.74;58.35;95668.47;5042418;28;20470;-69
2023/11/25 07:54:15;;;;;;;9.43;3.13;;;;;;;3.91;58.69;95667.97;5030656;28;20237;-70
2023/11/25 07:56:41;;;;;;;13.60;2.93;;;;;;;4.13;57.54;95672.53;5030023;28;20202;-68
2023/11/25 07:59:06;;;;;;;3.60;2.20;;;;;;;4.19;57.26;95673.19;5032911;28;20437;-69
2023/11/25 08:01:33;;;;;;;9.87;2.30;;;;;;;4.30;56.29;95665.09;5042208;28;20178;-69
2023/11/25 08:03:58;;;;;;;6.23;2.13;;;;;;;4.31;56.89;95664.19;5032835;28;20223;-68
2023/11/25 08:06:25;;;;;;;5.60;2.20;;;;;;;4.44;56.75;95673.31;5038288;28;20955;-69
2023/11/25 08:08:54;;;;;;;14.43;3.17;;;;;;;4.27;57.01;95672.94;5032156;28;20183;-69
2023/11/25 08:11:24;;;;;;;5.63;3.50;;;;;;;4.32;56.04;95665.03;5032900;28;20461;-69
2023/11/25 08:13:50;;;;;;;4.30;2.70;;;;;;;4.44;56.58;95670.69;5030838;28;20469;-69
2023/11/25 08:16:15;;;;;;;4.53;2.43;;;;;;;4.99;55.02;95664.59;5027576;28;20418;-69
2023/11/25 08:18:41;;;;;;;7.70;2.53;;;;;;;5.51;53.16;95660.19;5033565;28;20175;-68
2023/11/25 08:21:07;;;;;;;11.90;3.03;;;;;;;6.58;50.72;95657.88;5027953;28;20168;-69
2023/11/25 08:23:32;;;;;;;12.80;3.03;;;;;;;8.50;45.24;95651.28;5027475;28;20188;-71
2023/11/25 08:25:58;;;;;;;7.40;2.97;;;;;;;9.28;43.18;95644.81;5037970;28;20262;-68
2023/11/25 08:28:25;;;;;;;11.53;4.40;;;;;;;9.79;42.38;95629.09;5031609;28;20183;-69
2023/11/25 08:30:50;;;;;;;13.50;4.00;;;;;;;8.89;43.52;95643.28;5026497;28;20207;-68
2023/11/25 08:33:15;;;;;;;15.80;4.10;;;;;;;8.79;44.17;95649.88;5030364;28;20477;-69
2023/11/25 08:35:41;;;;;;;7.17;3.40;;;;;;;9.50;42.61;95645.41;5029514;28;20693;-69
2023/11/25 08:38:06;;;;;;;20.83;4.20;;;;;;;9.67;41.99;95635.81;5029732;28;20233;-69
2023/11/25 08:40:32;;;;;;;7.50;2.70;;;;;;;10.50;40.30;95637.44;5032570;28;20210;-69
2023/11/25 08:43:01;;;;;;;6.00;3.10;;;;;;;9.82;41.47;95640.25;5033526;28;20198;-69
2023/11/25 08:45:27;;;;;;;6.23;3.27;;;;;;;9.84;42.06;95635.78;5045802;28;20262;-68
2023/11/25 08:47:52;;;;;;;7.87;3.00;;;;;;;10.81;39.96;95643.59;5036463;28;21079;-68
2023/11/25 08:50:18;;;;;;;6.27;2.73;;;;;;;10.71;39.92;95645.91;5034998;28;20191;-68
2023/11/25 08:52:46;;;;;;;18.97;4.47;;;;;;;10.59;40.10;95647.44;5038300;28;20206;-69
2023/11/25 08:55:13;;;;;;;13.93;6.13;;;;;;;11.01;40.15;95648.56;5033324;28;20529;-69
2023/11/25 08:57:38;;;;;;;17.53;4.60;;;;;;;11.44;38.76;95661.81;5036769;28;20479;-71
2023/11/25 09:00:14;;;;;;;6.27;3.03;;;;;;;11.77;37.51;95665.16;5036019;28;20468;-67
2023/11/25 09:02:42;;;;;;;4.10;2.40;;;;;;;12.78;35.29;95658.00;5032914;28;20307;-70
2023/11/25 09:05:07;;;;;;;9.10;3.40;;;;;;;12.76;35.44;95655.50;5039564;28;20437;-70
2023/11/25 09:07:33;;;;;;;4.27;2.70;;;;;;;12.17;35.87;95665.38;5039650;28;20438;-67
2023/11/25 09:09:59;;;;;;;10.70;3.40;;;;;;;11.25;37.66;95660.38;5031086;28;20247;-66
2023/11/25 09:12:24;;;;;;;5.53;2.60;;;;;;;10.21;39.13;95673.13;5032328;28;20238;-69
2023/11/25 09:14:50;;;;;;;14.00;3.43;;;;;;;9.00;42.98;95676.75;5037896;28;20187;-70
2023/11/25 09:17:15;;;;;;;6.10;3.30;;;;;;;8.39;43.85;95683.16;5044560;28;20185;-69
2023/11/25 09:19:42;;;;;;;18.27;4.47;;;;;;;7.91;45.76;95700.97;5043679;28;20648;-70
2023/11/25 09:22:09;;;;;;;16.60;4.50;;;;;;;7.98;45.92;95693.72;5035839;28;20702;-71
2023/11/25 09:24:34;;;;;;;11.03;3.47;;;;;;;8.07;46.90;95694.13;5037128;28;21232;-70
2023/11/25 09:27:00;;;;;;;3.93;2.73;;;;;;;8.33;45.52;95699.94;5035503;28;20519;-70
2023/11/25 09:29:25;;;;;;;9.10;3.20;;;;;;;7.91;46.69;95702.75;5033875;28;20555;-70
2023/11/25 09:31:50;;;;;;;4.10;2.50;;;;;;;7.61;47.25;95695.34;5043994;28;20236;-71
2023/11/25 09:34:16;;;;;;;14.60;3.47;;;;;;;7.11;48.04;95703.53;5038450;28;20211;-70
2023/11/25 09:36:41;;;;;;;5.50;2.97;;;;;;;7.03;48.64;95700.41;5037781;28;20271;-70
2023/11/25 09:39:09;;;;;;;7.90;2.80;;;;;;;6.79;49.21;95696.13;5034679;28;20665;-70
2023/11/25 09:41:36;;;;;;;3.67;3.03;;;;;;;7.12;48.57;95703.50;5047785;28;20666;-72
2023/11/25 09:44:05;;;;;;;3.83;2.63;;;;;;;6.85;48.88;95700.28;5057088;28;20457;-70
2023/11/25 09:46:32;;;;;;;13.60;4.10;;;;;;;6.76;49.17;95708.47;5042715;28;20430;-71
2023/11/25 09:48:57;;;;;;;8.50;2.73;;;;;;;6.64;50.19;95703.72;5045134;28;20430;-71
2023/11/25 09:51:24;;;;;;;12.37;2.57;;;;;;;6.44;50.15;95707.09;5035180;28;20469;-71
2023/11/25 09:53:55;;;;;;;16.33;4.10;;;;;;;6.20;51.03;95714.13;5052311;28;20778;-70
2023/11/25 09:56:21;;;;;;;16.17;3.03;;;;;;;6.13;52.34;95714.31;5042582;28;20430;-68
2023/11/25 09:58:49;;;;;;;14.83;3.10;;;;;;;6.28;51.21;95712.06;5038611;28;20432;-71
2023/11/25 10:01:14;;;;;;;7.47;2.80;;;;;;;6.57;51.93;95703.13;5038191;28;20174;-69
2023/11/25 10:03:45;;;;;;;7.43;3.27;;;;;;;6.14;51.48;95707.34;5051503;28;20477;-70
2023/11/25 10:06:11;;;;;;;2.93;2.23;;;;;;;6.20;51.29;95699.31;5063231;28;20205;-70
2023/11/25 10:08:37;;;;;;;4.80;2.17;;;;;;;6.14;51.45;95697.81;5051359;28;20893;-70
2023/11/25 10:11:09;;;;;;;3.73;2.70;;;;;;;6.14;51.48;95694.34;5050744;28;20468;-69
2023/11/25 10:13:35;;;;;;;4.27;2.10;;;;;;;5.84;52.09;95697.16;5035592;28;20204;-69
2023/11/25 10:16:02;;;;;;;12.80;2.83;;;;;;;5.84;52.87;95691.94;5040625;28;20433;-70
2023/11/25 10:18:29;;;;;;;3.43;2.23;;;;;;;5.83;52.33;95687.63;5040041;28;20440;-69
2023/11/25 10:20:58;;;;;;;6.10;2.20;;;;;;;5.85;52.31;95690.19;5042467;28;20433;-69
2023/11/25 10:23:26;;;;;;;9.13;3.03;;;;;;;5.77;52.80;95687.88;5029062;28;20430;-70
2023/11/25 10:25:52;;;;;;;9.43;2.63;;;;;;;5.89;52.97;95689.19;5033118;28;20438;-68
2023/11/25 10:28:20;;;;;;;4.77;2.20;;;;;;;5.77;53.26;95677.47;5037997;28;20486;-68
2023/11/25 10:31:04;;;;;;;3.83;2.77;;;;;;;5.92;53.18;95671.66;5042200;28;20462;-68
2023/11/25 10:33:29;;;;;;;5.77;3.17;;;;;;;6.10;52.34;95671.94;5033599;28;21254;-72
2023/11/25 10:35:56;;;;;;;5.07;2.27;;;;;;;5.98;52.28;95668.03;5039466;28;20499;-72
2023/11/25 10:38:26;;;;;;;8.63;2.47;;;;;;;6.08;52.58;95666.78;5039663;28;20662;-70
2023/11/25 10:40:58;;;;;;;3.60;2.30;;;;;;;6.04;52.66;95666.94;5035094;28;20433;-72
2023/11/25 10:43:25;;;;;;;4.93;2.13;;;;;;;5.85;53.32;95664.16;5036424;28;20496;-71
2023/11/25 10:46:06;;;;;;;6.03;2.30;;;;;;;5.83;53.65;95671.16;5040547;28;20426;-68
2023/11/25 10:48:33;;;;;;;7.90;2.80;;;;;;;5.94;53.35;95663.84;5038185;28;20436;-72
2023/11/25 10:50:58;;;;;;;5.87;2.33;;;;;;;6.07;53.63;95667.69;5037471;28;20901;-74
2023/11/25 10:53:30;;;;;;;5.37;2.30;;;;;;;6.12;53.45;95667.53;5037823;28;20454;-69
2023/11/25 10:55:58;;;;;;;9.47;2.27;;;;;;;6.12;52.05;95659.69;5034261;28;20249;-70
2023/11/25 10:58:27;;;;;;;8.80;2.00;;;;;;;6.03;52.18;95654.84;5039934;28;20429;-71
2023/11/25 11:00:54;;;;;;;5.60;2.13;;;;;;;6.14;52.38;95643.09;5046458;28;20468;-72
2023/11/25 11:03:24;;;;;;;3.30;1.53;;;;;;;6.12;52.31;95647.53;5043208;28;20483;-71
2023/11/25 11:06:01;;;;;;;13.93;2.60;;;;;;;6.44;51.92;95634.97;5036310;28;20426;-72
2023/11/25 11:08:36;;;;;;;12.43;2.10;;;;;;;6.36;51.97;95637.06;5027927;28;20410;-70
2023/11/25 11:11:13;;;;;;;6.53;2.03;;;;;;;6.48;51.73;95646.13;5026982;28;20991;-72
2023/11/25 11:14:00;;;;;;;18.70;4.50;;;;;;;6.50;52.11;95634.75;5032085;28;20458;-72
2023/11/25 11:16:55;;;;;;;8.23;3.77;;;;;;;6.59;51.65;95628.31;5101303;27;20535;-69
2023/11/25 11:19:28;;;;;;;6.67;2.40;;;;;;;6.44;51.69;95628.91;5097274;28;20445;-70
2023/11/25 11:22:03;;;;;;;4.17;2.17;;;;;;;6.52;51.86;95621.63;5103276;28;20983;-73
2023/11/25 11:24:40;;;;;;;25.67;4.13;;;;;;;6.50;51.81;95610.44;5096882;28;20423;-71
2023/11/25 11:27:38;;;;;;;9.53;4.20;;;;;;;6.52;51.58;95604.25;5105084;28;20406;-72
2023/11/25 11:30:10;;;;;;;6.17;2.40;;;;;;;6.47;52.08;95600.13;5103299;28;20498;-73
2023/11/25 11:32:37;;;;;;;6.53;2.37;;;;;;;6.61;51.58;95599.56;5105839;28;20422;-73
2023/11/25 11:35:03;;;;;;;9.80;2.23;;;;;;;6.70;51.89;95599.19;5104618;28;20480;-73
2023/11/25 11:37:40;;;;;;;7.67;2.13;;;;;;;6.70;50.84;95596.56;5104199;28;20415;-73